SBSC

Details ICAO SBSC (STU)
Name SANTA CRUZ
Region Brazil
Timezone America/Sao_Paulo (UTC-2.0)
Plans Departing 17
Arriving 19
Stats Elevation 10 ft / 3 m (AMSL)
Location -22.932489° -43.719090°
Runways 1
Magnetic Variation 22.587° W
Sunrise 2017-12-16 08:05:53 UTC / 2017-12-16 06:05:53 Local
Sunset 2017-12-16 21:38:01 UTC / 2017-12-16 19:38:01 Local
Advertisement - Login to hide

Runways

ID Width Length Bearing (true) Bearing (mag) Surface Threshold Offset Overrun Length
05 148 ft / 45 m 9,039 ft / 2,755 m 24.13° 46.72° Asphalt 0 ft / 0 m 1,145 ft / 349 m
23 148 ft / 45 m 9,039 ft / 2,755 m 204.12° 226.71° Asphalt 0 ft / 0 m 1,145 ft / 349 m

Map

Weather


0- 5 10 15 20 25 30 35+ Temperature / ° C

Clouds and Precipitation
Forecast for 2017-12-17 00:00 UTC. Updated 2 hours ago

Ground ~20,000 ft ~40,000 ft Winds

METAR

SBSC 170000Z 10003KT 9999 FEW030 25/23 Q1012

TAF

TAF SBSC 161945Z 1700/1712 34005KT 9999 FEW030 TN22/1708Z TX28/1712Z BECMG 1706/1709 03005KT 7000 SCT015 BECMG 1710/1712 04010KT FEW030 RMK PFV

Frequencies

Ground 121.80 MHz GND
Tower 118.80 MHz TWR
Approach 133.70 MHz APP
Tower 122.90 MHz TWR
Approach 132.50 MHz APP
Warning: Do not use this data for real-world aviation or navigation. No guarantee of current accuracy is given.